createdAt,value
2017-06-25T00:00:30.353Z,0
2017-06-25T00:01:31.736Z,0
2017-06-25T00:02:33.111Z,0
2017-06-25T00:03:34.499Z,0
2017-06-25T00:04:35.876Z,0
2017-06-25T00:05:37.254Z,0
2017-06-25T00:06:38.636Z,0
2017-06-25T00:07:40.017Z,0
2017-06-25T00:08:41.405Z,0
2017-06-25T00:09:42.788Z,0
2017-06-25T00:10:44.162Z,0
2017-06-25T00:11:45.543Z,0
2017-06-25T00:12:46.934Z,0
2017-06-25T00:13:48.316Z,0
2017-06-25T00:14:49.690Z,0
2017-06-25T00:15:51.074Z,0
2017-06-25T00:16:52.457Z,0
2017-06-25T00:17:53.830Z,0
2017-06-25T00:18:55.212Z,0
2017-06-25T00:19:56.595Z,0
2017-06-25T00:20:57.978Z,0
2017-06-25T00:21:59.358Z,0
2017-06-25T00:23:00.736Z,0
2017-06-25T00:24:02.115Z,0
2017-06-25T00:25:03.498Z,0
2017-06-25T00:26:04.878Z,0
2017-06-25T00:27:06.261Z,0
2017-06-25T00:28:07.638Z,0
2017-06-25T00:29:09.016Z,0
2017-06-25T00:30:10.398Z,0
2017-06-25T00:31:11.780Z,0
2017-06-25T00:32:13.165Z,0
2017-06-25T00:33:14.556Z,0
2017-06-25T00:34:15.937Z,0
2017-06-25T00:35:17.322Z,0
2017-06-25T00:36:18.707Z,0
2017-06-25T00:37:20.087Z,0
2017-06-25T00:38:21.477Z,0
2017-06-25T00:39:22.861Z,0
2017-06-25T00:40:24.234Z,0
2017-06-25T00:41:25.616Z,0
2017-06-25T00:42:27.003Z,0
2017-06-25T00:43:28.386Z,0
2017-06-25T00:44:29.766Z,0
2017-06-25T00:45:31.146Z,0
2017-06-25T00:46:32.524Z,0
2017-06-25T00:47:33.914Z,0
2017-06-25T00:48:35.300Z,0
2017-06-25T00:49:36.775Z,0
2017-06-25T00:50:38.156Z,0
2017-06-25T00:51:39.537Z,0
2017-06-25T00:52:40.920Z,0
2017-06-25T00:53:42.530Z,0
2017-06-25T00:54:43.913Z,0
2017-06-25T00:55:45.295Z,0
2017-06-25T00:56:46.678Z,0
2017-06-25T00:57:48.057Z,0
2017-06-25T00:58:49.439Z,0
2017-06-25T00:59:50.816Z,0
2017-06-25T01:00:52.193Z,0
2017-06-25T01:01:53.573Z,0
2017-06-25T01:02:54.950Z,0
2017-06-25T01:03:56.335Z,0
2017-06-25T01:04:57.715Z,0
2017-06-25T01:05:59.094Z,0
2017-06-25T01:07:00.488Z,0
2017-06-25T01:08:01.865Z,0
2017-06-25T01:09:03.251Z,0
2017-06-25T01:10:04.628Z,0
2017-06-25T01:11:06.007Z,0
2017-06-25T01:12:07.385Z,0
2017-06-25T01:13:08.763Z,0
2017-06-25T01:14:10.144Z,0
2017-06-25T01:15:11.523Z,0
2017-06-25T01:16:12.905Z,0
2017-06-25T01:17:14.285Z,0
2017-06-25T01:18:15.666Z,0
2017-06-25T01:19:17.054Z,0
2017-06-25T01:20:18.435Z,0
2017-06-25T01:21:19.811Z,0
2017-06-25T01:22:21.196Z,0
2017-06-25T01:23:22.576Z,0
2017-06-25T01:24:23.959Z,0
2017-06-25T01:25:25.336Z,0
2017-06-25T01:26:26.721Z,0
2017-06-25T01:27:28.104Z,0
2017-06-25T01:28:29.480Z,0
2017-06-25T01:29:30.867Z,0
2017-06-25T01:30:32.249Z,0
2017-06-25T01:31:33.625Z,0
2017-06-25T01:32:34.997Z,0
2017-06-25T01:33:36.379Z,0
2017-06-25T01:34:37.757Z,0
2017-06-25T01:35:39.136Z,0
2017-06-25T01:36:40.521Z,0
2017-06-25T01:37:41.896Z,0
2017-06-25T01:38:43.277Z,0
2017-06-25T01:39:44.660Z,0
2017-06-25T01:40:46.050Z,0
2017-06-25T01:41:47.427Z,0
2017-06-25T01:42:48.861Z,0
2017-06-25T01:43:50.246Z,0
2017-06-25T01:44:51.625Z,0
2017-06-25T01:45:53.010Z,0
2017-06-25T01:46:54.391Z,0
2017-06-25T01:47:55.774Z,0
2017-06-25T01:48:57.155Z,0
2017-06-25T01:49:58.535Z,0
2017-06-25T01:50:59.912Z,0
2017-06-25T01:52:02.354Z,0
2017-06-25T01:53:03.733Z,0
2017-06-25T01:54:05.116Z,0
2017-06-25T01:55:06.496Z,0
2017-06-25T01:56:07.876Z,0
2017-06-25T01:57:09.257Z,0
2017-06-25T01:58:10.637Z,0
2017-06-25T01:59:12.013Z,0
2017-06-25T02:00:13.392Z,0
2017-06-25T02:01:14.780Z,0
2017-06-25T02:02:16.158Z,0
2017-06-25T02:03:17.534Z,0
2017-06-25T02:04:18.914Z,0
2017-06-25T02:05:20.297Z,0
2017-06-25T02:06:21.680Z,0
2017-06-25T02:07:23.057Z,0
2017-06-25T02:08:24.437Z,0
2017-06-25T02:09:25.817Z,0
2017-06-25T02:10:27.196Z,0
2017-06-25T02:11:28.576Z,0
2017-06-25T02:12:29.955Z,0
2017-06-25T02:13:31.336Z,0
2017-06-25T02:14:32.716Z,0
2017-06-25T02:15:34.114Z,0
2017-06-25T02:16:35.494Z,0
2017-06-25T02:17:36.986Z,0
2017-06-25T02:18:38.364Z,0
2017-06-25T02:19:39.747Z,0
2017-06-25T02:20:41.126Z,0
2017-06-25T02:21:42.514Z,0
2017-06-25T02:22:43.894Z,0
2017-06-25T02:23:45.280Z,0
2017-06-25T02:24:46.650Z,0
2017-06-25T02:25:48.034Z,0
2017-06-25T02:26:49.409Z,0
2017-06-25T02:27:50.797Z,0
2017-06-25T02:28:52.176Z,0
2017-06-25T02:29:53.557Z,0
2017-06-25T02:30:54.934Z,0
2017-06-25T02:31:56.312Z,0
2017-06-25T02:32:57.689Z,0
2017-06-25T02:33:59.066Z,0
2017-06-25T02:35:00.447Z,0
2017-06-25T02:36:01.825Z,0
2017-06-25T02:37:03.210Z,0
2017-06-25T02:38:04.585Z,0
2017-06-25T02:39:05.964Z,0
2017-06-25T02:40:07.359Z,0
2017-06-25T02:41:08.737Z,0
2017-06-25T02:42:10.112Z,0
2017-06-25T02:43:11.489Z,0
2017-06-25T02:44:12.872Z,0
2017-06-25T02:45:14.257Z,0
2017-06-25T02:46:15.633Z,0
2017-06-25T02:47:17.020Z,0
2017-06-25T02:48:18.433Z,0
2017-06-25T02:49:19.822Z,0
2017-06-25T02:50:21.207Z,4
2017-06-25T02:51:22.681Z,0
2017-06-25T02:52:24.063Z,0
2017-06-25T02:53:25.450Z,4
2017-06-25T02:54:26.828Z,4
2017-06-25T02:55:28.209Z,0
2017-06-25T02:56:29.588Z,4
2017-06-25T02:57:30.965Z,4
2017-06-25T02:58:32.347Z,4
2017-06-25T02:59:33.730Z,4
2017-06-25T03:00:35.105Z,4
2017-06-25T03:01:36.478Z,4
2017-06-25T03:02:37.857Z,4
2017-06-25T03:03:39.236Z,8
2017-06-25T03:04:40.616Z,8
2017-06-25T03:05:42.000Z,4
2017-06-25T03:06:43.376Z,8
2017-06-25T03:07:44.793Z,8
2017-06-25T03:08:46.181Z,12
2017-06-25T03:09:47.559Z,8
2017-06-25T03:10:48.945Z,8
2017-06-25T03:11:50.319Z,8
2017-06-25T03:12:51.700Z,8
2017-06-25T03:13:53.084Z,8
2017-06-25T03:14:54.464Z,12
2017-06-25T03:15:55.846Z,12
2017-06-25T03:16:57.227Z,12
2017-06-25T03:17:58.611Z,12
2017-06-25T03:18:59.987Z,16
2017-06-25T03:20:01.363Z,12
2017-06-25T03:21:02.749Z,16
2017-06-25T03:22:04.125Z,16
2017-06-25T03:23:05.516Z,12
2017-06-25T03:24:07.000Z,16
2017-06-25T03:25:08.383Z,16
2017-06-25T03:26:09.761Z,16
2017-06-25T03:27:11.144Z,16
2017-06-25T03:28:12.526Z,16
2017-06-25T03:29:13.906Z,20
2017-06-25T03:30:15.287Z,16
2017-06-25T03:31:16.669Z,16
2017-06-25T03:32:18.042Z,20
2017-06-25T03:33:19.428Z,16
2017-06-25T03:34:20.812Z,16
2017-06-25T03:35:22.187Z,20
2017-06-25T03:36:23.576Z,20
2017-06-25T03:37:24.952Z,24
2017-06-25T03:38:26.333Z,24
2017-06-25T03:39:27.715Z,28
2017-06-25T03:40:29.096Z,24
2017-06-25T03:41:30.476Z,24
2017-06-25T03:42:31.858Z,28
2017-06-25T03:43:33.236Z,28
2017-06-25T03:44:34.616Z,28
2017-06-25T03:45:36.000Z,32
2017-06-25T03:46:37.376Z,36
2017-06-25T03:47:38.759Z,40
2017-06-25T03:48:40.132Z,44
2017-06-25T03:49:41.515Z,48
2017-06-25T03:50:42.894Z,44
2017-06-25T03:51:44.274Z,48
2017-06-25T03:52:45.653Z,52
2017-06-25T03:53:47.038Z,56
2017-06-25T03:54:48.426Z,52
2017-06-25T03:55:49.807Z,56
2017-06-25T03:56:51.183Z,48
2017-06-25T03:57:52.565Z,48
2017-06-25T03:58:53.948Z,48
2017-06-25T03:59:55.329Z,44
2017-06-25T04:00:56.706Z,44
2017-06-25T04:01:58.084Z,40
2017-06-25T04:02:59.466Z,44
2017-06-25T04:04:00.848Z,56
2017-06-25T04:05:02.226Z,56
2017-06-25T04:06:03.614Z,60
2017-06-25T04:07:04.988Z,60
2017-06-25T04:08:06.371Z,60
2017-06-25T04:09:07.754Z,68
2017-06-25T04:10:09.159Z,68
2017-06-25T04:11:10.527Z,60
2017-06-25T04:12:11.902Z,60
2017-06-25T04:13:13.285Z,56
2017-06-25T04:14:14.665Z,72
2017-06-25T04:15:16.049Z,88
2017-06-25T04:16:17.429Z,104
2017-06-25T04:17:18.831Z,104
2017-06-25T04:18:20.210Z,136
2017-06-25T04:19:21.587Z,116
2017-06-25T04:20:22.974Z,108
2017-06-25T04:21:24.358Z,92
2017-06-25T04:22:25.736Z,96
2017-06-25T04:23:27.117Z,104
2017-06-25T04:24:28.498Z,144
2017-06-25T04:25:29.879Z,196
2017-06-25T04:26:31.259Z,228
2017-06-25T04:27:32.651Z,200
2017-06-25T04:28:34.040Z,212
2017-06-25T04:29:35.422Z,200
2017-06-25T04:30:36.805Z,216
2017-06-25T04:31:38.182Z,232
2017-06-25T04:32:39.565Z,212
2017-06-25T04:33:40.950Z,184
2017-06-25T04:34:42.329Z,160
2017-06-25T04:35:43.722Z,116
2017-06-25T04:36:45.106Z,144
2017-06-25T04:37:46.492Z,184
2017-06-25T04:38:47.874Z,180
2017-06-25T04:39:49.269Z,196
2017-06-25T04:40:50.654Z,224
2017-06-25T04:41:52.038Z,212
2017-06-25T04:42:53.418Z,244
2017-06-25T04:43:54.802Z,180
2017-06-25T04:44:56.186Z,224
2017-06-25T04:45:57.563Z,208
2017-06-25T04:46:58.946Z,240
2017-06-25T04:48:00.336Z,276
2017-06-25T04:49:01.720Z,332
2017-06-25T04:50:03.101Z,372
2017-06-25T04:51:04.493Z,420
2017-06-25T04:52:05.880Z,312
2017-06-25T04:53:07.268Z,284
2017-06-25T04:54:08.645Z,252
2017-06-25T04:55:10.028Z,168
2017-06-25T04:56:11.400Z,140
2017-06-25T04:57:12.790Z,104
2017-06-25T04:58:14.172Z,96
2017-06-25T04:59:15.556Z,80
2017-06-25T05:00:16.939Z,104
2017-06-25T05:01:18.320Z,136
2017-06-25T05:02:19.698Z,140
2017-06-25T05:03:21.078Z,140
2017-06-25T05:04:22.457Z,156
2017-06-25T05:05:23.836Z,188
2017-06-25T05:06:25.219Z,208
2017-06-25T05:07:26.603Z,236
2017-06-25T05:08:27.982Z,232
2017-06-25T05:09:29.363Z,188
2017-06-25T05:10:30.745Z,204
2017-06-25T05:11:32.129Z,224
2017-06-25T05:12:33.507Z,248
2017-06-25T05:13:34.894Z,228
2017-06-25T05:14:36.323Z,212
2017-06-25T05:15:37.707Z,192
2017-06-25T05:16:39.703Z,172
2017-06-25T05:17:41.088Z,192
2017-06-25T05:18:42.469Z,220
2017-06-25T05:19:43.857Z,172
2017-06-25T05:20:45.230Z,188
2017-06-25T05:21:46.616Z,160
2017-06-25T05:22:48.004Z,200
2017-06-25T05:23:49.386Z,192
2017-06-25T05:24:50.764Z,236
2017-06-25T05:25:52.150Z,256
2017-06-25T05:26:53.533Z,208
2017-06-25T05:27:54.909Z,204
2017-06-25T05:28:56.295Z,184
2017-06-25T05:29:57.679Z,152
2017-06-25T05:30:59.058Z,180
2017-06-25T05:32:00.439Z,176
2017-06-25T05:33:01.823Z,168
2017-06-25T05:34:03.203Z,204
2017-06-25T05:35:04.588Z,296
2017-06-25T05:36:05.971Z,356
2017-06-25T05:37:07.355Z,436
2017-06-25T05:38:08.743Z,400
2017-06-25T05:39:10.122Z,372
2017-06-25T05:40:11.498Z,372
2017-06-25T05:41:12.882Z,468
2017-06-25T05:42:14.273Z,520
2017-06-25T05:43:15.656Z,788
2017-06-25T05:44:17.042Z,772
2017-06-25T05:45:18.420Z,800
2017-06-25T05:46:19.798Z,708
2017-06-25T05:47:21.187Z,724
2017-06-25T05:48:22.568Z,764
2017-06-25T05:49:23.951Z,768
2017-06-25T05:50:25.327Z,760
2017-06-25T05:51:26.709Z,836
2017-06-25T05:52:28.093Z,728
2017-06-25T05:53:29.477Z,704
2017-06-25T05:54:30.857Z,716
2017-06-25T05:55:32.238Z,628
2017-06-25T05:56:33.618Z,936
2017-06-25T05:57:35.000Z,1076
2017-06-25T05:58:36.387Z,700
2017-06-25T05:59:37.770Z,812
2017-06-25T06:00:39.152Z,724
2017-06-25T06:01:40.646Z,736
2017-06-25T06:02:42.028Z,656
2017-06-25T06:03:43.424Z,648
2017-06-25T06:04:44.810Z,572
2017-06-25T06:05:46.199Z,596
2017-06-25T06:06:47.575Z,696
2017-06-25T06:07:48.958Z,700
2017-06-25T06:08:50.337Z,496
2017-06-25T06:09:51.716Z,588
2017-06-25T06:10:53.098Z,680
2017-06-25T06:11:54.476Z,760
2017-06-25T06:12:55.860Z,564
2017-06-25T06:13:57.238Z,580
2017-06-25T06:14:58.618Z,580
2017-06-25T06:16:00.005Z,548
2017-06-25T06:17:01.402Z,476
2017-06-25T06:18:02.788Z,540
2017-06-25T06:19:04.196Z,476
2017-06-25T06:20:05.586Z,472
2017-06-25T06:21:06.990Z,588
2017-06-25T06:22:08.410Z,584
2017-06-25T06:23:09.793Z,696
2017-06-25T06:24:11.182Z,472
2017-06-25T06:25:12.568Z,536
2017-06-25T06:26:13.953Z,756
2017-06-25T06:27:15.340Z,520
2017-06-25T06:28:16.718Z,548
2017-06-25T06:29:18.103Z,448
2017-06-25T06:30:19.486Z,300
2017-06-25T06:31:20.876Z,344
2017-06-25T06:32:22.257Z,260
2017-06-25T06:33:23.639Z,256
2017-06-25T06:34:25.025Z,284
2017-06-25T06:35:26.408Z,336
2017-06-25T06:36:27.798Z,340
2017-06-25T06:37:29.179Z,400
2017-06-25T06:38:30.574Z,572
2017-06-25T06:39:31.963Z,628
2017-06-25T06:40:33.358Z,864
2017-06-25T06:41:34.742Z,1288
2017-06-25T06:42:36.123Z,1352
2017-06-25T06:43:37.513Z,1184
2017-06-25T06:44:38.902Z,1424
2017-06-25T06:45:40.289Z,1936
2017-06-25T06:46:41.677Z,2032
2017-06-25T06:47:43.054Z,1916
2017-06-25T06:48:44.441Z,1580
2017-06-25T06:49:45.831Z,1416
2017-06-25T06:50:48.727Z,1196
2017-06-25T06:51:50.110Z,1140
2017-06-25T06:52:51.491Z,932
2017-06-25T06:53:52.880Z,816
2017-06-25T06:54:54.265Z,972
2017-06-25T06:55:55.667Z,852
2017-06-25T06:56:57.047Z,744
2017-06-25T06:57:58.430Z,592
2017-06-25T06:58:59.808Z,588
2017-06-25T07:00:01.217Z,616
2017-06-25T07:01:02.599Z,784
2017-06-25T07:02:03.980Z,776
2017-06-25T07:03:05.357Z,676
2017-06-25T07:04:06.772Z,560
2017-06-25T07:05:08.188Z,508
2017-06-25T07:06:09.568Z,568
2017-06-25T07:07:10.958Z,892
2017-06-25T07:08:12.340Z,968
2017-06-25T07:09:13.726Z,1328
2017-06-25T07:10:15.111Z,1420
2017-06-25T07:11:16.499Z,1340
2017-06-25T07:12:17.879Z,1548
2017-06-25T07:13:19.260Z,1584
2017-06-25T07:14:20.644Z,1640
2017-06-25T07:15:22.029Z,1576
2017-06-25T07:16:23.419Z,1676
2017-06-25T07:17:24.805Z,1400
2017-06-25T07:18:26.194Z,1440
2017-06-25T07:19:27.579Z,1368
2017-06-25T07:20:28.960Z,1380
2017-06-25T07:21:30.346Z,1204
2017-06-25T07:22:31.735Z,1564
2017-06-25T07:23:33.122Z,1572
2017-06-25T07:24:34.518Z,1528
2017-06-25T07:25:35.900Z,1560
2017-06-25T07:26:37.299Z,1432
2017-06-25T07:27:38.688Z,1228
2017-06-25T07:28:40.073Z,1140
2017-06-25T07:29:41.460Z,1564
2017-06-25T07:30:42.839Z,1016
2017-06-25T07:31:44.224Z,1148
2017-06-25T07:32:45.609Z,1140
2017-06-25T07:33:46.990Z,880
2017-06-25T07:34:48.384Z,780
2017-06-25T07:35:49.770Z,796
2017-06-25T07:36:51.158Z,872
2017-06-25T07:37:52.549Z,928
2017-06-25T07:38:53.937Z,932
2017-06-25T07:39:55.323Z,1004
2017-06-25T07:40:56.711Z,1032
2017-06-25T07:41:58.107Z,1264
2017-06-25T07:42:59.494Z,1236
2017-06-25T07:44:00.880Z,1152
2017-06-25T07:45:02.262Z,1188
2017-06-25T07:46:03.641Z,1300
2017-06-25T07:47:05.025Z,1348
2017-06-25T07:48:06.422Z,1180
2017-06-25T07:49:07.813Z,1080
2017-06-25T07:50:09.198Z,1176
2017-06-25T07:51:10.580Z,1256
2017-06-25T07:52:11.962Z,1228
2017-06-25T07:53:13.353Z,1204
2017-06-25T07:54:14.746Z,1200
2017-06-25T07:55:16.139Z,1268
2017-06-25T07:56:17.525Z,1320
2017-06-25T07:57:18.911Z,1292
2017-06-25T07:58:20.322Z,1216
2017-06-25T07:59:21.710Z,1320
2017-06-25T08:00:23.097Z,1236
2017-06-25T08:01:24.486Z,1432
2017-06-25T08:02:25.869Z,1160
2017-06-25T08:03:27.247Z,1244
2017-06-25T08:04:28.629Z,1500
2017-06-25T08:05:30.004Z,1700
2017-06-25T08:06:31.391Z,1664
2017-06-25T08:07:32.780Z,1776
2017-06-25T08:08:34.166Z,1028
2017-06-25T08:09:35.548Z,1180
2017-06-25T08:10:36.934Z,1580
2017-06-25T08:11:38.317Z,2068
2017-06-25T08:12:39.699Z,1460
2017-06-25T08:13:41.085Z,2256
2017-06-25T08:14:42.475Z,2428
2017-06-25T08:15:43.861Z,2632
2017-06-25T08:16:45.249Z,1688
2017-06-25T08:17:46.632Z,1932
2017-06-25T08:18:48.013Z,2140
2017-06-25T08:19:49.423Z,1532
2017-06-25T08:20:50.819Z,1784
2017-06-25T08:21:52.210Z,2256
2017-06-25T08:22:53.608Z,2068
2017-06-25T08:23:55.001Z,2316
2017-06-25T08:24:56.396Z,1568
2017-06-25T08:25:57.782Z,1744
2017-06-25T08:26:59.170Z,2212
2017-06-25T08:28:00.559Z,2384
2017-06-25T08:29:01.951Z,1468
2017-06-25T08:30:03.334Z,1188
2017-06-25T08:31:04.717Z,1280
2017-06-25T08:32:06.109Z,1252
2017-06-25T08:33:07.488Z,1160
2017-06-25T08:34:08.880Z,1172
2017-06-25T08:35:10.264Z,1412
2017-06-25T08:36:11.653Z,1744
2017-06-25T08:37:13.033Z,2108
2017-06-25T08:38:14.420Z,2176
2017-06-25T08:39:15.815Z,2464
2017-06-25T08:40:17.210Z,2272
2017-06-25T08:41:18.612Z,2304
2017-06-25T08:42:19.997Z,2056
2017-06-25T08:43:21.385Z,1984
2017-06-25T08:44:22.769Z,2200
2017-06-25T08:45:24.178Z,2032
2017-06-25T08:46:25.548Z,1912
2017-06-25T08:47:26.929Z,2340
2017-06-25T08:48:28.322Z,2512
2017-06-25T08:49:29.709Z,2428
2017-06-25T08:50:31.088Z,3004
2017-06-25T08:51:32.479Z,3084
2017-06-25T08:52:33.860Z,2424
2017-06-25T08:53:35.248Z,2308
2017-06-25T08:54:36.646Z,2076
2017-06-25T08:55:38.032Z,2528
2017-06-25T08:56:39.415Z,2656
2017-06-25T08:57:40.805Z,2560
2017-06-25T08:58:42.186Z,2460
2017-06-25T08:59:43.574Z,3024
2017-06-25T09:00:44.969Z,3780
2017-06-25T09:01:46.361Z,2884
2017-06-25T09:02:47.746Z,2236
2017-06-25T09:03:49.141Z,1952
2017-06-25T09:04:50.537Z,2344
2017-06-25T09:05:51.928Z,3044
2017-06-25T09:06:53.320Z,2380
2017-06-25T09:07:54.711Z,2004
2017-06-25T09:08:56.097Z,1636
2017-06-25T09:09:57.483Z,1504
2017-06-25T09:10:58.887Z,1476
2017-06-25T09:12:00.272Z,1544
2017-06-25T09:13:01.658Z,1484
2017-06-25T09:14:03.046Z,1604
2017-06-25T09:15:04.444Z,1404
2017-06-25T09:16:05.829Z,1560
2017-06-25T09:17:07.214Z,1772
2017-06-25T09:18:08.603Z,1536
2017-06-25T09:19:09.991Z,1664
2017-06-25T09:20:11.379Z,1932
2017-06-25T09:21:12.772Z,1672
2017-06-25T09:22:14.162Z,1712
2017-06-25T09:23:15.556Z,1472
2017-06-25T09:24:16.952Z,1584
2017-06-25T09:25:18.334Z,1848
2017-06-25T09:26:19.725Z,1680
2017-06-25T09:27:21.106Z,1364
2017-06-25T09:28:22.497Z,1764
2017-06-25T09:29:23.893Z,1652
2017-06-25T09:30:25.280Z,1596
2017-06-25T09:31:26.669Z,1672
2017-06-25T09:32:28.056Z,1668
2017-06-25T09:33:29.454Z,1960
2017-06-25T09:34:30.842Z,2580
2017-06-25T09:35:32.223Z,3104
2017-06-25T09:36:33.611Z,3124
2017-06-25T09:37:35.000Z,3204
2017-06-25T09:38:36.392Z,3256
2017-06-25T09:39:37.789Z,2868
2017-06-25T09:40:39.175Z,2064
2017-06-25T09:41:40.558Z,1588
2017-06-25T09:42:41.945Z,1076
2017-06-25T09:43:43.333Z,920
2017-06-25T09:44:44.719Z,1404
2017-06-25T09:45:46.111Z,1040
2017-06-25T09:46:48.414Z,932
2017-06-25T09:47:48.839Z,824
2017-06-25T09:48:50.224Z,792
2017-06-25T09:49:51.612Z,692
2017-06-25T09:50:53.006Z,652
2017-06-25T09:51:54.389Z,476
2017-06-25T09:52:55.774Z,452
2017-06-25T09:53:57.165Z,556
2017-06-25T09:54:58.548Z,492
2017-06-25T09:55:59.933Z,644
2017-06-25T09:57:01.320Z,916
2017-06-25T09:58:02.743Z,1044
2017-06-25T09:59:04.137Z,1100
2017-06-25T10:00:05.521Z,1028
2017-06-25T10:01:06.908Z,1068
2017-06-25T10:02:08.301Z,1076
2017-06-25T10:03:09.686Z,1152
2017-06-25T10:04:11.076Z,1416
2017-06-25T10:05:12.469Z,1760
2017-06-25T10:06:13.860Z,1788
2017-06-25T10:07:15.242Z,1876
2017-06-25T10:08:16.630Z,2064
2017-06-25T10:09:18.021Z,2084
2017-06-25T10:10:19.409Z,1888
2017-06-25T10:11:20.792Z,1648
2017-06-25T10:12:22.176Z,1224
2017-06-25T10:13:23.568Z,1024
2017-06-25T10:14:24.951Z,916
2017-06-25T10:15:26.338Z,988
2017-06-25T10:16:27.720Z,1080
2017-06-25T10:17:29.110Z,1196
2017-06-25T10:18:31.210Z,1240
2017-06-25T10:19:32.597Z,1292
2017-06-25T10:20:33.995Z,1356
2017-06-25T10:21:35.396Z,1392
2017-06-25T10:22:36.776Z,1388
2017-06-25T10:23:38.181Z,1452
2017-06-25T10:24:39.565Z,1488
2017-06-25T10:25:40.963Z,1500
2017-06-25T10:26:42.353Z,1508
2017-06-25T10:27:43.739Z,1524
2017-06-25T10:28:45.134Z,1516
2017-06-25T10:29:46.524Z,1556
2017-06-25T10:30:47.898Z,1668
2017-06-25T10:31:49.282Z,1848
2017-06-25T10:32:50.684Z,1884
2017-06-25T10:33:52.071Z,2204
2017-06-25T10:34:53.458Z,2988
2017-06-25T10:35:54.850Z,3332
2017-06-25T10:36:56.238Z,3612
2017-06-25T10:37:57.626Z,3944
2017-06-25T10:38:59.014Z,3196
2017-06-25T10:40:00.401Z,3284
2017-06-25T10:41:01.801Z,4204
2017-06-25T10:42:03.189Z,4104
2017-06-25T10:43:04.582Z,4920
2017-06-25T10:44:05.972Z,4804
2017-06-25T10:45:07.364Z,4576
2017-06-25T10:46:08.752Z,4208
2017-06-25T10:47:10.149Z,3884
2017-06-25T10:48:11.542Z,4216
2017-06-25T10:49:12.932Z,3744
2017-06-25T10:50:14.321Z,3576
2017-06-25T10:51:15.712Z,3832
2017-06-25T10:52:17.099Z,4220
2017-06-25T10:53:18.543Z,4440
2017-06-25T10:54:19.930Z,4428
2017-06-25T10:55:21.314Z,4704
2017-06-25T10:56:22.782Z,4460
2017-06-25T10:57:24.173Z,4704
2017-06-25T10:58:25.573Z,4884
2017-06-25T10:59:26.961Z,4972
2017-06-25T11:00:28.346Z,4844
2017-06-25T11:01:29.747Z,4972
2017-06-25T11:02:31.150Z,5040
2017-06-25T11:03:32.533Z,5128
2017-06-25T11:04:33.915Z,5188
2017-06-25T11:05:35.298Z,4944
2017-06-25T11:06:36.694Z,3644
2017-06-25T11:07:38.089Z,5024
2017-06-25T11:08:39.493Z,4448
2017-06-25T11:09:40.882Z,4196
2017-06-25T11:10:42.269Z,3576
2017-06-25T11:11:43.671Z,2808
2017-06-25T11:12:45.072Z,2416
2017-06-25T11:13:46.473Z,1868
2017-06-25T11:14:47.856Z,1604
2017-06-25T11:15:49.242Z,1352
2017-06-25T11:16:50.638Z,1180
2017-06-25T11:17:52.024Z,1104
2017-06-25T11:18:53.457Z,1308
2017-06-25T11:19:54.840Z,1504
2017-06-25T11:20:56.260Z,1460
2017-06-25T11:21:57.650Z,1288
2017-06-25T11:22:59.036Z,1156
2017-06-25T11:24:00.421Z,1008
2017-06-25T11:25:01.814Z,764
2017-06-25T11:26:03.198Z,680
2017-06-25T11:27:04.580Z,688
2017-06-25T11:28:05.963Z,668
2017-06-25T11:29:07.350Z,672
2017-06-25T11:30:08.738Z,536
2017-06-25T11:31:10.130Z,584
2017-06-25T11:32:11.518Z,720
2017-06-25T11:33:12.904Z,692
2017-06-25T11:34:14.297Z,700
2017-06-25T11:35:15.678Z,768
2017-06-25T11:36:17.133Z,808
2017-06-25T11:37:18.517Z,808
2017-06-25T11:38:19.902Z,944
2017-06-25T11:39:21.285Z,948
2017-06-25T11:40:22.673Z,972
2017-06-25T11:41:24.063Z,964
2017-06-25T11:42:25.456Z,1000
2017-06-25T11:43:26.853Z,1016
2017-06-25T11:44:28.233Z,1032
2017-06-25T11:45:29.613Z,1048
2017-06-25T11:46:31.010Z,1024
2017-06-25T11:47:32.403Z,1052
2017-06-25T11:48:33.793Z,1116
2017-06-25T11:49:35.185Z,1060
2017-06-25T11:50:36.569Z,1000
2017-06-25T11:51:37.951Z,980
2017-06-25T11:52:39.341Z,1000
2017-06-25T11:53:40.723Z,1056
2017-06-25T11:54:42.105Z,1120
2017-06-25T11:55:43.491Z,1016
2017-06-25T11:56:44.878Z,948
2017-06-25T11:57:46.272Z,904
2017-06-25T11:58:47.670Z,788
2017-06-25T11:59:49.048Z,756
2017-06-25T12:00:50.439Z,800
2017-06-25T12:01:51.823Z,912
2017-06-25T12:02:53.206Z,1140
2017-06-25T12:03:54.602Z,1316
2017-06-25T12:04:55.995Z,1308
2017-06-25T12:05:57.391Z,1260
2017-06-25T12:06:58.773Z,1272
2017-06-25T12:08:00.896Z,1344
2017-06-25T12:09:02.281Z,1460
2017-06-25T12:10:03.684Z,1520
2017-06-25T12:11:05.076Z,1592
2017-06-25T12:12:06.467Z,1596
2017-06-25T12:13:07.849Z,1676
2017-06-25T12:14:09.230Z,1836
2017-06-25T12:15:10.626Z,2012
2017-06-25T12:16:12.030Z,2020
2017-06-25T12:17:13.435Z,1764
2017-06-25T12:18:14.822Z,1548
2017-06-25T12:19:16.211Z,1492
2017-06-25T12:20:17.597Z,1388
2017-06-25T12:21:18.995Z,1352
2017-06-25T12:22:20.381Z,1572
2017-06-25T12:23:21.762Z,1960
2017-06-25T12:24:23.159Z,2224
2017-06-25T12:25:24.603Z,2488
2017-06-25T12:26:25.990Z,2424
2017-06-25T12:27:27.373Z,2380
2017-06-25T12:28:28.774Z,2324
2017-06-25T12:29:30.160Z,2564
2017-06-25T12:30:31.542Z,2976
2017-06-25T12:31:32.932Z,3688
2017-06-25T12:32:34.321Z,4124
2017-06-25T12:33:36.206Z,4608
2017-06-25T12:34:37.581Z,4800
2017-06-25T12:35:38.969Z,4944
2017-06-25T12:36:40.361Z,4920
2017-06-25T12:37:41.750Z,4572
2017-06-25T12:38:43.146Z,3884
2017-06-25T12:39:44.531Z,3828
2017-06-25T12:40:45.925Z,4124
2017-06-25T12:41:47.311Z,3548
2017-06-25T12:42:48.705Z,2616
2017-06-25T12:43:50.086Z,1880
2017-06-25T12:44:51.483Z,1488
2017-06-25T12:45:52.865Z,1280
2017-06-25T12:46:54.248Z,1136
2017-06-25T12:47:55.651Z,1092
2017-06-25T12:48:57.040Z,964
2017-06-25T12:49:58.426Z,872
2017-06-25T12:50:59.814Z,1004
2017-06-25T12:52:01.199Z,1240
2017-06-25T12:53:02.589Z,1548
2017-06-25T12:54:03.976Z,1492
2017-06-25T12:55:05.361Z,1480
2017-06-25T12:56:06.753Z,1328
2017-06-25T12:57:08.138Z,1376
2017-06-25T12:58:09.532Z,1152
2017-06-25T12:59:10.923Z,1092
2017-06-25T13:00:12.308Z,1028
2017-06-25T13:01:13.690Z,1108
2017-06-25T13:02:15.081Z,1340
2017-06-25T13:03:16.472Z,1216
2017-06-25T13:04:17.857Z,1240
2017-06-25T13:05:19.259Z,1240
2017-06-25T13:06:20.643Z,1084
2017-06-25T13:07:22.043Z,1032
2017-06-25T13:08:23.437Z,1136
2017-06-25T13:09:25.789Z,1028
2017-06-25T13:10:27.179Z,1216
2017-06-25T13:11:28.613Z,1312
2017-06-25T13:12:29.998Z,1248
2017-06-25T13:13:31.387Z,1280
2017-06-25T13:14:32.769Z,1420
2017-06-25T13:15:34.158Z,1408
2017-06-25T13:16:35.543Z,1388
2017-06-25T13:17:36.926Z,1408
2017-06-25T13:18:38.314Z,1340
2017-06-25T13:19:39.707Z,1152
2017-06-25T13:20:41.113Z,1076
2017-06-25T13:21:42.504Z,1064
2017-06-25T13:22:43.886Z,1028
2017-06-25T13:23:45.278Z,1028
2017-06-25T13:24:46.672Z,1036
2017-06-25T13:25:48.059Z,952
2017-06-25T13:26:49.456Z,1084
2017-06-25T13:27:50.839Z,968
2017-06-25T13:28:52.234Z,972
2017-06-25T13:29:53.620Z,848
2017-06-25T13:30:55.020Z,828
2017-06-25T13:31:56.412Z,888
2017-06-25T13:32:57.801Z,1204
2017-06-25T13:33:59.183Z,1472
2017-06-25T13:35:00.567Z,1544
2017-06-25T13:36:01.958Z,1592
2017-06-25T13:37:03.342Z,1700
2017-06-25T13:38:04.734Z,1572
2017-06-25T13:39:06.124Z,1372
2017-06-25T13:40:07.521Z,1324
2017-06-25T13:41:08.909Z,1256
2017-06-25T13:42:10.295Z,1228
2017-06-25T13:43:11.681Z,1128
2017-06-25T13:44:13.070Z,1008
2017-06-25T13:45:14.461Z,948
2017-06-25T13:46:15.849Z,944
2017-06-25T13:47:17.240Z,924
2017-06-25T13:48:18.628Z,916
2017-06-25T13:49:20.011Z,912
2017-06-25T13:50:21.401Z,964
2017-06-25T13:51:22.783Z,1004
2017-06-25T13:52:24.159Z,892
2017-06-25T13:53:25.560Z,768
2017-06-25T13:54:26.941Z,712
2017-06-25T13:55:28.336Z,676
2017-06-25T13:56:29.730Z,620
2017-06-25T13:57:31.114Z,652
2017-06-25T13:58:32.509Z,668
2017-06-25T13:59:33.888Z,624
2017-06-25T14:00:35.273Z,672
2017-06-25T14:01:36.670Z,788
2017-06-25T14:02:38.048Z,860
2017-06-25T14:03:39.428Z,856
2017-06-25T14:04:40.830Z,896
2017-06-25T14:05:42.219Z,900
2017-06-25T14:06:43.607Z,900
2017-06-25T14:07:45.042Z,960
2017-06-25T14:08:46.420Z,1064